Time;durP1;ratioP1;P1;durP2;ratioP2;P2;SDS_P1;SDS_P2;PMS_P1;PMS_P2;Temp;Humidity;BMP_temperature;BMP_pressure;BME280_temperature;BME280_humidity;BME280_pressure;Samples;Min_cycle;Max_cycle;Signal;HPM_P1;HPM_P2
2023/01/26 00:00:52;;;;;;;63.63;16.55;;;6.60;93.00;;;;;;5105487;28;20039;-58
2023/01/26 00:03:18;;;;;;;77.38;17.55;;;6.60;93.00;;;;;;5105236;28;20020;-58
2023/01/26 00:05:43;;;;;;;69.57;15.57;;;6.50;93.00;;;;;;5105168;28;20115;-58
2023/01/26 00:08:09;;;;;;;67.45;16.52;;;6.50;93.00;;;;;;5105119;28;20027;-58
2023/01/26 00:10:36;;;;;;;65.72;15.32;;;6.50;93.10;;;;;;5106699;28;20060;-58
2023/01/26 00:13:02;;;;;;;56.88;14.95;;;6.50;93.10;;;;;;5106517;28;20028;-58
2023/01/26 00:15:28;;;;;;;71.03;14.90;;;6.50;93.10;;;;;;5104947;28;20051;-58
2023/01/26 00:17:53;;;;;;;65.78;16.35;;;6.50;93.10;;;;;;5106267;28;20020;-58
2023/01/26 00:20:19;;;;;;;72.25;16.05;;;6.50;93.10;;;;;;5104844;28;20040;-58
2023/01/26 00:22:45;;;;;;;62.45;14.95;;;6.40;93.10;;;;;;5105009;28;20019;-58
2023/01/26 00:25:10;;;;;;;47.58;14.57;;;6.50;93.10;;;;;;5104971;28;20055;-58
2023/01/26 00:27:36;;;;;;;59.72;15.68;;;6.50;93.10;;;;;;5104800;28;20128;-58
2023/01/26 00:30:01;;;;;;;62.15;15.48;;;6.40;93.00;;;;;;5106103;28;20035;-58
2023/01/26 00:32:27;;;;;;;57.45;14.93;;;6.40;93.10;;;;;;5104565;28;20032;-58
2023/01/26 00:34:52;;;;;;;43.65;13.60;;;6.40;93.00;;;;;;5087522;28;20080;-58
2023/01/26 00:37:18;;;;;;;51.95;15.38;;;6.40;93.10;;;;;;5104464;28;20031;-58
2023/01/26 00:39:43;;;;;;;49.22;13.23;;;6.40;93.00;;;;;;5104756;28;20490;-58
2023/01/26 00:42:12;;;;;;;50.22;15.32;;;6.40;93.00;;;;;;5106154;28;20578;-58
2023/01/26 00:44:38;;;;;;;49.47;14.13;;;6.40;93.00;;;;;;5105989;28;20036;-58
2023/01/26 00:47:09;;;;;;;51.53;14.57;;;6.40;93.10;;;;;;5087453;28;20024;-58
2023/01/26 00:49:34;;;;;;;42.70;15.40;;;6.40;93.00;;;;;;5104508;28;20043;-57
2023/01/26 00:52:00;;;;;;;46.10;14.07;;;6.30;92.90;;;;;;5104483;28;20031;-58
2023/01/26 00:54:26;;;;;;;41.10;14.10;;;6.30;93.00;;;;;;5104396;28;20092;-58
2023/01/26 00:56:52;;;;;;;49.83;14.00;;;6.30;93.00;;;;;;5087367;28;20023;-58
2023/01/26 00:59:17;;;;;;;50.60;14.32;;;6.30;93.00;;;;;;5103458;28;20056;-58
2023/01/26 01:01:43;;;;;;;43.90;13.98;;;6.40;93.00;;;;;;5104240;28;20024;-58
2023/01/26 01:04:09;;;;;;;42.58;14.13;;;6.30;93.00;;;;;;5104043;28;20040;-57
2023/01/26 01:06:35;;;;;;;41.75;13.48;;;6.30;93.00;;;;;;5105304;28;20066;-58
2023/01/26 01:09:00;;;;;;;47.70;13.48;;;6.30;92.90;;;;;;5087360;28;20284;-58
2023/01/26 01:11:26;;;;;;;43.65;14.55;;;6.30;92.90;;;;;;5105367;28;20484;-58
2023/01/26 01:13:51;;;;;;;39.05;13.10;;;6.30;92.90;;;;;;5104028;28;20031;-58
2023/01/26 01:16:17;;;;;;;41.20;13.55;;;6.30;92.90;;;;;;5104211;28;20111;-58
2023/01/26 01:18:43;;;;;;;38.53;13.88;;;6.30;92.90;;;;;;5103718;28;20020;-58
2023/01/26 01:21:15;;;;;;;42.60;13.55;;;6.30;92.90;;;;;;5105421;28;20062;-58
2023/01/26 01:23:41;;;;;;;36.47;12.65;;;6.30;93.00;;;;;;5105102;28;20025;-58
2023/01/26 01:26:07;;;;;;;41.63;13.35;;;6.20;92.90;;;;;;5105252;28;20080;-58
2023/01/26 01:28:33;;;;;;;37.53;12.52;;;6.20;93.00;;;;;;5105400;28;20034;-57
2023/01/26 01:30:58;;;;;;;46.88;14.02;;;6.20;93.00;;;;;;5104026;28;20435;-58
2023/01/26 01:33:24;;;;;;;37.75;13.68;;;6.20;93.00;;;;;;5105498;28;20103;-58
2023/01/26 01:35:57;;;;;;;55.85;14.43;;;6.20;93.00;;;;;;5105261;28;20035;-57
2023/01/26 01:38:22;;;;;;;45.05;13.25;;;6.20;93.00;;;;;;5103538;28;20020;-58
2023/01/26 01:40:48;;;;;;;41.70;13.68;;;6.20;93.00;;;;;;5105128;28;20032;-58
2023/01/26 01:43:13;;;;;;;32.97;12.88;;;6.10;93.00;;;;;;5086700;28;20021;-58
2023/01/26 01:45:43;;;;;;;45.80;13.75;;;6.20;93.00;;;;;;5103922;28;20032;-58
2023/01/26 01:48:29;;;;;;;40.72;13.07;;;6.10;93.00;;;;;;5103850;28;20089;-58
2023/01/26 01:50:58;;;;;;;40.00;13.98;;;6.20;93.00;;;;;;5103864;28;20032;-57
2023/01/26 01:53:30;;;;;;;41.88;13.20;;;6.10;93.00;;;;;;5103830;28;20040;-58
2023/01/26 01:55:57;;;;;;;40.88;13.95;;;6.10;93.00;;;;;;5103730;28;20048;-58
2023/01/26 01:58:23;;;;;;;30.80;12.63;;;6.10;93.00;;;;;;5103673;28;20036;-58
2023/01/26 02:00:48;;;;;;;32.28;12.30;;;6.10;93.00;;;;;;5086766;28;20075;-58
2023/01/26 02:03:14;;;;;;;35.33;13.52;;;6.10;93.00;;;;;;5103596;28;20046;-58
2023/01/26 02:05:56;;;;;;;34.47;12.13;;;6.10;93.00;;;;;;5086815;28;20048;-58
2023/01/26 02:08:24;;;;;;;38.33;13.43;;;6.10;93.00;;;;;;5104773;28;20056;-58
2023/01/26 02:10:51;;;;;;;33.70;13.50;;;6.10;93.00;;;;;;5104259;28;20032;-58
2023/01/26 02:13:17;;;;;;;33.58;12.93;;;6.10;93.00;;;;;;5107501;28;20031;-57
2023/01/26 02:15:43;;;;;;;30.70;11.95;;;6.00;93.00;;;;;;5107046;28;20036;-58
2023/01/26 02:18:10;;;;;;;39.05;12.82;;;6.00;93.00;;;;;;5107365;28;20027;-57
2023/01/26 02:20:52;;;;;;;29.33;12.90;;;6.10;93.00;;;;;;5107375;28;20029;-58
2023/01/26 02:23:39;;;;;;;37.40;13.82;;;6.00;93.00;;;;;;5107426;28;20024;-58
2023/01/26 02:26:14;;;;;;;31.10;12.40;;;6.00;93.00;;;;;;5108595;28;20031;-58
2023/01/26 02:28:41;;;;;;;36.53;13.10;;;6.00;93.00;;;;;;5107167;28;20016;-58
2023/01/26 02:31:06;;;;;;;32.03;12.43;;;6.00;93.00;;;;;;5108588;28;20085;-58
2023/01/26 02:33:32;;;;;;;34.85;12.13;;;6.00;93.00;;;;;;5107028;28;20080;-58
2023/01/26 02:35:58;;;;;;;36.28;12.93;;;6.00;93.00;;;;;;5106993;28;20032;-57
2023/01/26 02:38:26;;;;;;;32.03;12.27;;;6.00;93.00;;;;;;5106852;28;20051;-58
2023/01/26 02:40:54;;;;;;;31.92;12.00;;;6.00;93.10;;;;;;5089787;28;20028;-58
2023/01/26 02:43:21;;;;;;;26.98;12.20;;;6.00;93.10;;;;;;5108060;28;20020;-58
2023/01/26 02:45:46;;;;;;;30.80;13.60;;;6.00;93.10;;;;;;5106575;28;20055;-58
2023/01/26 02:48:12;;;;;;;26.35;12.23;;;5.90;93.00;;;;;;5106711;28;20060;-58
2023/01/26 02:50:37;;;;;;;32.45;12.50;;;5.90;93.00;;;;;;5106877;28;20039;-58
2023/01/26 02:53:03;;;;;;;28.50;12.27;;;5.90;93.00;;;;;;5107895;28;20107;-57
2023/01/26 02:55:28;;;;;;;36.90;12.02;;;5.90;93.00;;;;;;5106612;28;20036;-58
2023/01/26 02:57:56;;;;;;;20.92;11.73;;;5.90;93.00;;;;;;5106640;28;20028;-58
2023/01/26 03:00:35;;;;;;;27.58;12.75;;;5.90;93.00;;;;;;5106395;28;20080;-58
2023/01/26 03:03:01;;;;;;;26.85;11.57;;;5.90;93.00;;;;;;5106660;28;20027;-58
2023/01/26 03:05:27;;;;;;;28.30;12.32;;;5.90;93.00;;;;;;5106320;28;20484;-58
2023/01/26 03:07:52;;;;;;;27.63;12.07;;;5.90;93.00;;;;;;5106684;28;20032;-58
2023/01/26 03:10:18;;;;;;;32.67;12.27;;;5.90;93.00;;;;;;5107827;28;20027;-57
2023/01/26 03:12:44;;;;;;;27.25;10.82;;;5.90;93.00;;;;;;5106247;28;20028;-58
2023/01/26 03:29:02;;;;;;;26.60;11.18;;;5.80;93.00;;;;;;5107262;28;20058;-58
2023/01/26 03:31:27;;;;;;;21.92;11.40;;;5.80;93.00;;;;;;5105845;28;20028;-58
2023/01/26 03:33:53;;;;;;;24.35;12.18;;;5.80;93.00;;;;;;5107086;28;20044;-58
2023/01/26 03:36:18;;;;;;;25.63;12.18;;;5.80;93.10;;;;;;5105919;28;20156;-57
2023/01/26 03:38:44;;;;;;;26.90;12.48;;;5.80;93.10;;;;;;5106883;28;20035;-57
2023/01/26 03:57:33;;;;;;;25.23;12.00;;;5.70;93.10;;;;;;5106899;28;20074;-58
2023/01/26 03:59:59;;;;;;;22.70;12.68;;;5.70;93.10;;;;;;5107053;28;20032;-57
2023/01/26 04:10:37;;;;;;;24.65;11.77;;;5.70;93.10;;;;;;5106742;28;20529;-58
2023/01/26 04:21:32;;;;;;;21.63;11.30;;;5.80;93.10;;;;;;5105549;28;20053;-58
2023/01/26 04:23:58;;;;;;;28.05;12.38;;;5.70;93.10;;;;;;5105429;28;20032;-58
2023/01/26 04:26:25;;;;;;;18.60;11.20;;;5.80;93.10;;;;;;5105263;28;20028;-58
2023/01/26 04:28:51;;;;;;;25.08;11.43;;;5.70;93.10;;;;;;5105006;28;20031;-58
2023/01/26 04:31:16;;;;;;;26.50;13.15;;;5.70;93.10;;;;;;5105070;28;20468;-58
2023/01/26 04:33:43;;;;;;;20.48;11.77;;;5.70;93.00;;;;;;5104704;28;20024;-58
2023/01/26 04:36:09;;;;;;;23.60;12.38;;;5.70;93.00;;;;;;5104959;28;20071;-58
2023/01/26 04:38:34;;;;;;;27.60;14.00;;;5.70;93.00;;;;;;5105740;28;20378;-58
2023/01/26 04:41:00;;;;;;;19.38;13.63;;;5.70;93.10;;;;;;5104669;28;20040;-58
2023/01/26 04:43:25;;;;;;;27.75;14.07;;;5.70;93.30;;;;;;5105840;28;20474;-58
2023/01/26 04:46:05;;;;;;;27.77;15.73;;;5.70;93.40;;;;;;5104657;28;20036;-57
2023/01/26 04:48:30;;;;;;;30.50;14.70;;;5.70;93.60;;;;;;5104404;28;20036;-57
2023/01/26 04:50:58;;;;;;;26.90;15.23;;;5.70;93.60;;;;;;5104544;28;20123;-58
2023/01/26 04:53:23;;;;;;;22.42;13.40;;;5.70;93.60;;;;;;5104537;28;20054;-58
2023/01/26 04:55:49;;;;;;;23.80;14.13;;;5.70;93.70;;;;;;5104326;28;20452;-58
2023/01/26 04:58:14;;;;;;;24.23;13.85;;;5.70;93.70;;;;;;5106058;28;20077;-57
2023/01/26 05:00:40;;;;;;;33.30;16.05;;;5.70;93.70;;;;;;5105978;28;20036;-58
2023/01/26 05:03:05;;;;;;;20.70;13.77;;;5.70;93.70;;;;;;5105838;28;20027;-58
2023/01/26 05:05:38;;;;;;;22.58;13.90;;;5.70;93.70;;;;;;5104460;28;20028;-58
2023/01/26 05:08:04;;;;;;;24.85;14.50;;;5.70;93.70;;;;;;5104308;28;20392;-58
2023/01/26 05:10:30;;;;;;;26.48;13.98;;;5.70;93.70;;;;;;5103997;28;20044;-58
2023/01/26 05:12:55;;;;;;;22.20;14.75;;;5.70;93.70;;;;;;5087241;28;20043;-57
2023/01/26 05:15:21;;;;;;;24.48;14.85;;;5.70;93.70;;;;;;5105409;28;20448;-58
2023/01/26 05:17:46;;;;;;;21.70;13.95;;;5.70;93.70;;;;;;5104138;28;20520;-58
2023/01/26 05:20:12;;;;;;;25.30;14.20;;;5.70;93.70;;;;;;5104034;28;20344;-58
2023/01/26 05:22:38;;;;;;;24.20;14.27;;;5.60;93.70;;;;;;5105507;28;20056;-58
2023/01/26 05:25:04;;;;;;;22.65;13.77;;;5.80;93.70;;;;;;5103901;28;20450;-58
2023/01/26 05:27:29;;;;;;;24.15;14.27;;;5.80;93.80;;;;;;5104172;28;20032;-58
2023/01/26 05:29:59;;;;;;;23.30;14.52;;;5.80;93.80;;;;;;5105450;28;20131;-58
2023/01/26 05:32:25;;;;;;;29.42;15.52;;;5.80;93.90;;;;;;5087719;28;20028;-58
2023/01/26 05:34:51;;;;;;;22.83;14.55;;;5.80;94.00;;;;;;5102434;28;20108;-58
2023/01/26 05:37:17;;;;;;;25.48;13.35;;;5.80;94.00;;;;;;5102446;28;20024;-58
2023/01/26 05:39:42;;;;;;;22.33;14.43;;;5.80;94.00;;;;;;5104142;28;20405;-58
2023/01/26 05:42:09;;;;;;;25.42;14.65;;;5.80;94.00;;;;;;5103820;28;20043;-58
2023/01/26 05:44:35;;;;;;;26.40;14.80;;;5.80;94.00;;;;;;5101469;28;20040;-58
2023/01/26 05:47:00;;;;;;;22.05;14.57;;;5.80;94.00;;;;;;5094237;28;20032;-58
2023/01/26 05:49:26;;;;;;;26.23;14.98;;;5.80;93.90;;;;;;5088726;28;20465;-58
2023/01/26 05:51:51;;;;;;;131.55;23.88;;;5.80;93.90;;;;;;5107714;28;20059;-58
2023/01/26 05:54:17;;;;;;;214.98;32.17;;;5.80;93.80;;;;;;5107328;28;20042;-55
2023/01/26 05:56:42;;;;;;;298.35;39.35;;;5.80;93.70;;;;;;5097262;28;20112;-58
2023/01/26 05:59:08;;;;;;;196.60;30.02;;;5.70;93.60;;;;;;5085176;28;20034;-58
2023/01/26 06:01:34;;;;;;;137.32;23.85;;;5.80;93.50;;;;;;5107875;28;20020;-58
2023/01/26 06:03:59;;;;;;;119.60;22.55;;;5.80;93.50;;;;;;5102875;28;20036;-58
2023/01/26 06:06:25;;;;;;;83.75;20.27;;;5.80;93.50;;;;;;5104668;28;20028;-58
2023/01/26 06:08:50;;;;;;;77.43;19.20;;;5.70;93.40;;;;;;5105447;28;20042;-57
2023/01/26 06:11:16;;;;;;;65.75;19.52;;;5.70;93.30;;;;;;5087222;28;20024;-58
2023/01/26 06:13:41;;;;;;;71.72;19.63;;;5.70;93.20;;;;;;5094834;28;20024;-58
2023/01/26 06:16:07;;;;;;;58.40;18.25;;;5.70;93.10;;;;;;5090360;28;20031;-58
2023/01/26 06:18:32;;;;;;;83.90;20.35;;;5.70;93.10;;;;;;5100985;28;20024;-58
2023/01/26 06:21:00;;;;;;;100.03;21.98;;;5.70;93.10;;;;;;5097300;28;20033;-58
2023/01/26 06:23:26;;;;;;;80.78;21.05;;;5.70;93.20;;;;;;5094158;28;20021;-57
2023/01/26 06:25:51;;;;;;;131.90;23.42;;;5.70;93.20;;;;;;5087184;28;20098;-58
2023/01/26 06:28:19;;;;;;;121.53;25.17;;;5.70;93.20;;;;;;5096432;28;20044;-57
2023/01/26 06:30:44;;;;;;;132.27;24.08;;;5.70;93.10;;;;;;5086110;28;20044;-57
2023/01/26 06:33:10;;;;;;;123.18;23.60;;;5.70;93.10;;;;;;5086065;28;20032;-57
2023/01/26 06:35:36;;;;;;;113.57;25.25;;;5.70;93.10;;;;;;5099314;28;20054;-57
2023/01/26 06:38:01;;;;;;;101.35;23.90;;;5.70;93.10;;;;;;5098396;28;20425;-58
2023/01/26 06:40:27;;;;;;;131.20;24.20;;;5.70;93.10;;;;;;5101389;28;20032;-57
2023/01/26 06:42:52;;;;;;;138.52;26.20;;;5.70;93.10;;;;;;5105630;28;20049;-58
2023/01/26 06:45:19;;;;;;;158.18;26.80;;;5.70;93.10;;;;;;5095585;28;20230;-57
2023/01/26 06:47:51;;;;;;;216.10;30.67;;;5.70;93.00;;;;;;5085705;28;20025;-58
2023/01/26 06:50:22;;;;;;;128.88;26.05;;;5.70;93.00;;;;;;5104216;28;20028;-57
2023/01/26 06:52:50;;;;;;;94.63;23.17;;;5.70;93.00;;;;;;5089383;28;20042;-58
2023/01/26 06:55:28;;;;;;;77.93;21.48;;;5.70;92.90;;;;;;5106020;28;20057;-57
2023/01/26 06:57:53;;;;;;;121.25;22.50;;;5.70;92.90;;;;;;5095074;28;20043;-58
2023/01/26 07:00:19;;;;;;;127.53;22.65;;;5.70;92.80;;;;;;5096996;28;20036;-58
2023/01/26 07:02:45;;;;;;;100.13;22.58;;;5.70;92.80;;;;;;5101730;28;20068;-57
2023/01/26 07:05:10;;;;;;;156.20;25.83;;;5.70;92.80;;;;;;5087069;28;20024;-57
2023/01/26 07:07:36;;;;;;;111.93;25.15;;;5.70;92.90;;;;;;5100554;28;20092;-58
2023/01/26 07:10:02;;;;;;;121.55;25.48;;;5.70;92.90;;;;;;5103691;28;20040;-57
2023/01/26 07:12:39;;;;;;;103.00;23.40;;;5.70;92.90;;;;;;5086819;28;20035;-58
2023/01/26 07:15:05;;;;;;;136.30;23.50;;;5.70;92.80;;;;;;5105344;28;20028;-57
2023/01/26 07:17:31;;;;;;;91.22;22.92;;;5.70;92.80;;;;;;5103730;28;20047;-58
2023/01/26 07:19:56;;;;;;;82.65;20.48;;;5.70;92.70;;;;;;5100146;28;20032;-58
2023/01/26 07:22:22;;;;;;;102.70;21.50;;;5.60;92.60;;;;;;5102569;28;20088;-58
2023/01/26 07:24:47;;;;;;;100.20;21.08;;;5.60;92.60;;;;;;5103028;28;20039;-57
2023/01/26 07:27:13;;;;;;;72.63;19.73;;;5.60;92.70;;;;;;5102672;28;20519;-58
2023/01/26 07:29:38;;;;;;;63.67;19.27;;;5.60;92.60;;;;;;5099374;28;20039;-58
2023/01/26 07:32:04;;;;;;;63.40;18.92;;;5.60;92.50;;;;;;5096225;28;20438;-58
2023/01/26 07:34:30;;;;;;;64.25;19.08;;;5.60;92.50;;;;;;5095674;28;20087;-57
2023/01/26 07:36:55;;;;;;;64.53;18.27;;;5.60;92.50;;;;;;5096182;28;20123;-57
2023/01/26 07:39:21;;;;;;;61.42;18.08;;;5.50;92.40;;;;;;5100682;28;20120;-57
2023/01/26 07:41:47;;;;;;;70.18;19.02;;;5.60;92.50;;;;;;5104436;28;20028;-57
2023/01/26 07:44:13;;;;;;;55.05;17.92;;;5.50;92.50;;;;;;5100733;28;20092;-58
2023/01/26 07:46:40;;;;;;;73.90;18.33;;;5.50;92.50;;;;;;5098257;28;20056;-57
2023/01/26 07:49:06;;;;;;;64.30;18.60;;;5.50;92.50;;;;;;5106040;28;20142;-58
2023/01/26 07:51:31;;;;;;;57.38;17.20;;;5.50;92.50;;;;;;5104368;28;20028;-57
2023/01/26 07:53:57;;;;;;;52.10;17.92;;;5.50;92.50;;;;;;5103509;28;20476;-57
2023/01/26 07:56:23;;;;;;;58.40;18.92;;;5.50;92.50;;;;;;5087766;28;20032;-58
2023/01/26 07:58:52;;;;;;;69.57;19.70;;;5.50;92.50;;;;;;5086421;28;20035;-57
2023/01/26 08:01:18;;;;;;;47.08;17.20;;;5.50;92.50;;;;;;5101967;28;20024;-58
2023/01/26 08:03:44;;;;;;;53.63;18.42;;;5.50;92.50;;;;;;5099093;28;20048;-55
2023/01/26 08:06:10;;;;;;;73.35;19.65;;;5.60;92.50;;;;;;5102901;28;20206;-57
2023/01/26 08:08:36;;;;;;;147.40;26.52;;;5.60;92.50;;;;;;5104349;28;20032;-57
2023/01/26 08:11:02;;;;;;;167.15;27.17;;;5.60;92.60;;;;;;5105823;28;20073;-57
2023/01/26 08:13:28;;;;;;;124.30;24.67;;;5.60;92.70;;;;;;5086101;28;20021;-57
2023/01/26 08:15:54;;;;;;;110.40;21.67;;;5.70;92.80;;;;;;5084767;28;20028;-57
2023/01/26 08:18:19;;;;;;;86.45;20.42;;;5.60;92.80;;;;;;5098381;28;20028;-57
2023/01/26 08:20:50;;;;;;;89.18;20.85;;;5.70;92.70;;;;;;5092189;28;20024;-58
2023/01/26 08:23:15;;;;;;;76.72;19.92;;;5.70;92.60;;;;;;5083643;28;20056;-58
2023/01/26 08:25:41;;;;;;;108.80;22.65;;;5.60;92.60;;;;;;5085093;28;20456;-57
2023/01/26 08:28:06;;;;;;;102.13;23.55;;;5.60;92.50;;;;;;5066935;28;20046;-55
2023/01/26 08:30:32;;;;;;;101.35;21.23;;;5.60;92.60;;;;;;5099952;28;20446;-58
2023/01/26 08:32:57;;;;;;;111.57;22.48;;;5.70;92.60;;;;;;5085149;28;20047;-58
2023/01/26 08:35:23;;;;;;;85.68;19.88;;;5.60;92.50;;;;;;5105410;28;20135;-58
2023/01/26 08:37:49;;;;;;;87.68;20.42;;;5.60;92.40;;;;;;5105186;28;20061;-58
2023/01/26 08:40:15;;;;;;;78.75;19.65;;;5.70;92.40;;;;;;5103612;28;20028;-57
2023/01/26 08:42:40;;;;;;;89.55;20.02;;;5.60;92.40;;;;;;5103755;28;20044;-57
2023/01/26 08:45:06;;;;;;;120.45;22.00;;;5.60;92.40;;;;;;5088503;28;20032;-58
2023/01/26 08:47:32;;;;;;;85.38;20.77;;;5.60;92.40;;;;;;5101133;28;20027;-58
2023/01/26 08:49:57;;;;;;;86.75;20.35;;;5.60;92.30;;;;;;5103013;28;20034;-58
2023/01/26 08:52:23;;;;;;;95.93;21.48;;;5.60;92.30;;;;;;5102566;28;20035;-58
2023/01/26 08:54:49;;;;;;;97.43;20.30;;;5.60;92.30;;;;;;5097524;28;20058;-58
2023/01/26 08:57:14;;;;;;;125.03;22.33;;;5.70;92.30;;;;;;5104939;28;20020;-58
2023/01/26 08:59:40;;;;;;;87.57;21.23;;;5.70;92.30;;;;;;5101682;28;20016;-57
2023/01/26 09:02:05;;;;;;;107.50;22.30;;;5.70;92.60;;;;;;5103169;28;20024;-58
2023/01/26 09:04:31;;;;;;;90.53;21.75;;;5.70;92.30;;;;;;5103441;28;20130;-58
2023/01/26 09:06:56;;;;;;;76.68;20.77;;;5.70;92.30;;;;;;5103145;28;20028;-58
2023/01/26 09:09:22;;;;;;;122.15;22.42;;;5.70;92.30;;;;;;5103424;28;20028;-57
2023/01/26 09:11:47;;;;;;;77.28;19.48;;;5.70;92.30;;;;;;5101686;28;20045;-58
2023/01/26 09:14:13;;;;;;;78.55;19.13;;;5.70;92.30;;;;;;5100135;28;20110;-58
2023/01/26 09:16:38;;;;;;;124.25;22.75;;;5.70;92.30;;;;;;5096038;28;20020;-57
2023/01/26 09:19:04;;;;;;;106.68;22.45;;;5.70;92.40;;;;;;5097550;28;20025;-57
2023/01/26 09:21:30;;;;;;;98.88;19.98;;;5.70;92.50;;;;;;5085544;28;20047;-58
2023/01/26 09:23:56;;;;;;;131.68;24.60;;;5.70;92.40;;;;;;5102524;28;20511;-57
2023/01/26 09:26:21;;;;;;;106.72;23.48;;;5.70;92.20;;;;;;5103098;28;20024;-58
2023/01/26 09:28:51;;;;;;;86.55;20.67;;;5.70;92.20;;;;;;5097610;28;20040;-58
2023/01/26 09:31:16;;;;;;;145.38;25.10;;;5.70;92.20;;;;;;5096781;28;20024;-58
2023/01/26 09:33:42;;;;;;;107.82;23.77;;;5.80;92.20;;;;;;5096077;28;20391;-58
2023/01/26 09:36:09;;;;;;;108.20;22.55;;;5.70;92.20;;;;;;5090963;28;20516;-58
2023/01/26 09:38:34;;;;;;;87.10;21.00;;;5.70;92.10;;;;;;5085646;28;20062;-58
2023/01/26 09:41:06;;;;;;;105.85;22.45;;;5.70;92.20;;;;;;5099259;28;20404;-58
2023/01/26 09:43:34;;;;;;;93.65;20.00;;;5.80;92.20;;;;;;5091035;28;20024;-58
2023/01/26 09:46:11;;;;;;;97.60;22.77;;;5.70;92.20;;;;;;5096467;28;20029;-58
2023/01/26 09:48:45;;;;;;;97.60;20.88;;;5.80;92.20;;;;;;5081332;28;20429;-58
2023/01/26 09:51:18;;;;;;;79.10;19.75;;;5.80;92.20;;;;;;5083702;28;20032;-58
2023/01/26 09:53:52;;;;;;;84.63;21.42;;;5.70;92.10;;;;;;5074975;28;20032;-58
2023/01/26 09:56:19;;;;;;;74.53;19.08;;;5.80;92.20;;;;;;5087906;28;20036;-58
2023/01/26 09:59:14;;;;;;;101.75;21.23;;;5.80;92.10;;;;;;5088712;28;20444;-58
2023/01/26 10:02:17;;;;;;;97.22;20.05;;;5.80;92.10;;;;;;5043955;28;20037;-58
2023/01/26 10:04:43;;;;;;;88.82;19.58;;;5.80;92.00;;;;;;5065656;28;20067;-57
2023/01/26 10:07:10;;;;;;;120.00;22.48;;;5.80;92.00;;;;;;5082172;28;20040;-58
2023/01/26 10:09:37;;;;;;;115.25;22.20;;;5.80;92.10;;;;;;5081968;28;20055;-58
2023/01/26 10:12:22;;;;;;;134.90;25.15;;;5.80;92.10;;;;;;5092279;28;20092;-58
2023/01/26 10:15:07;;;;;;;96.22;21.13;;;5.80;92.00;;;;;;5085242;28;20044;-58
2023/01/26 10:17:37;;;;;;;89.47;20.50;;;5.80;92.10;;;;;;5085970;28;20017;-58
2023/01/26 10:20:13;;;;;;;93.07;21.55;;;5.80;92.00;;;;;;5078696;28;20033;-58
2023/01/26 10:22:44;;;;;;;74.40;19.65;;;5.80;92.00;;;;;;5088756;28;20028;-57
2023/01/26 10:25:23;;;;;;;108.25;21.95;;;5.80;91.90;;;;;;5094015;28;20448;-58
2023/01/26 10:27:49;;;;;;;119.88;22.58;;;5.80;91.90;;;;;;5094718;28;20126;-58
2023/01/26 10:30:15;;;;;;;130.75;21.92;;;5.80;91.90;;;;;;5101012;28;20115;-58
2023/01/26 10:32:41;;;;;;;111.60;23.20;;;5.90;91.80;;;;;;5071153;28;20044;-57
2023/01/26 10:35:22;;;;;;;113.18;22.38;;;5.90;91.80;;;;;;5098844;28;20036;-56
2023/01/26 10:37:47;;;;;;;83.07;19.58;;;5.80;91.80;;;;;;5086662;28;20029;-57
2023/01/26 10:40:13;;;;;;;81.57;20.83;;;5.80;91.70;;;;;;5097152;28;20115;-58
2023/01/26 10:42:39;;;;;;;133.40;25.95;;;5.80;91.70;;;;;;5100423;28;20032;-57
2023/01/26 10:45:27;;;;;;;95.00;20.67;;;5.80;91.60;;;;;;5104885;28;20062;-57
2023/01/26 10:48:02;;;;;;;86.13;20.40;;;5.90;91.60;;;;;;5106075;28;20032;-58
2023/01/26 10:50:27;;;;;;;81.70;20.98;;;5.80;91.60;;;;;;5101179;28;20028;-57
2023/01/26 10:53:00;;;;;;;101.43;21.58;;;5.80;91.50;;;;;;5105577;28;20024;-58
2023/01/26 10:55:26;;;;;;;110.45;21.35;;;5.90;91.50;;;;;;5095540;28;20044;-58
2023/01/26 10:57:52;;;;;;;93.00;21.17;;;5.90;91.50;;;;;;5101560;28;20035;-58
2023/01/26 11:00:18;;;;;;;99.22;19.13;;;5.90;91.40;;;;;;5104952;28;20080;-57
2023/01/26 11:02:49;;;;;;;86.25;20.75;;;5.80;91.30;;;;;;5107122;28;20069;-58
2023/01/26 11:05:19;;;;;;;86.45;20.42;;;5.80;91.30;;;;;;5105924;28;20055;-58
2023/01/26 11:07:46;;;;;;;101.30;20.67;;;5.80;91.30;;;;;;5104762;28;20059;-57
2023/01/26 11:10:18;;;;;;;102.55;21.10;;;5.80;91.30;;;;;;5088395;28;20147;-58
2023/01/26 11:12:43;;;;;;;105.55;20.52;;;5.90;91.20;;;;;;5086695;28;20029;-58
2023/01/26 11:15:15;;;;;;;72.65;19.02;;;5.80;91.20;;;;;;5084576;28;20127;-57
2023/01/26 11:17:57;;;;;;;69.10;17.08;;;5.80;91.20;;;;;;5086136;28;20021;-57
2023/01/26 11:20:44;;;;;;;81.13;18.95;;;5.90;91.10;;;;;;5089064;28;20029;-57
2023/01/26 11:23:13;;;;;;;94.30;18.70;;;5.80;91.10;;;;;;5099024;28;20070;-57
2023/01/26 11:25:53;;;;;;;65.95;17.13;;;5.80;91.10;;;;;;5094302;28;20096;-58
2023/01/26 11:28:48;;;;;;;78.47;18.95;;;5.80;91.10;;;;;;5090366;28;20138;-58
2023/01/26 11:31:41;;;;;;;61.10;18.05;;;5.90;91.00;;;;;;5082288;28;20131;-57
2023/01/26 11:34:28;;;;;;;94.63;18.88;;;5.90;91.00;;;;;;5100490;28;21451;-57
2023/01/26 11:37:18;;;;;;;79.53;18.88;;;5.90;91.10;;;;;;5074019;28;20032;-57
2023/01/26 11:40:03;;;;;;;64.13;17.92;;;5.90;91.10;;;;;;5100725;28;20472;-57
2023/01/26 11:42:44;;;;;;;80.23;18.67;;;5.90;91.10;;;;;;5101309;28;20028;-57
2023/01/26 11:45:27;;;;;;;86.97;19.50;;;5.90;91.10;;;;;;5093262;28;20028;-58
2023/01/26 11:48:06;;;;;;;71.40;17.73;;;5.90;91.00;;;;;;5102319;28;20036;-58
2023/01/26 11:50:34;;;;;;;92.22;19.60;;;5.90;91.00;;;;;;5100930;28;20040;-57
2023/01/26 11:53:14;;;;;;;90.03;19.75;;;5.90;91.00;;;;;;5103845;28;20046;-58
2023/01/26 11:55:58;;;;;;;83.90;19.65;;;5.90;91.00;;;;;;5102074;28;20476;-57
2023/01/26 11:58:27;;;;;;;73.65;18.65;;;5.90;91.10;;;;;;5100110;28;20420;-58
2023/01/26 12:01:06;;;;;;;69.70;18.38;;;5.90;91.10;;;;;;5095936;28;20154;-57
2023/01/26 12:03:48;;;;;;;80.63;18.77;;;5.90;91.00;;;;;;5085675;28;20076;-58
2023/01/26 12:06:28;;;;;;;80.68;18.27;;;5.90;91.00;;;;;;5097362;28;20063;-58
2023/01/26 12:08:58;;;;;;;74.03;18.15;;;5.90;91.00;;;;;;5091653;28;20032;-58
2023/01/26 12:11:34;;;;;;;72.53;19.70;;;5.90;91.00;;;;;;5083243;28;20032;-58
2023/01/26 12:14:23;;;;;;;74.47;18.35;;;6.00;91.00;;;;;;5099219;28;20024;-58
2023/01/26 12:16:52;;;;;;;103.15;20.25;;;6.00;91.10;;;;;;5089038;28;20036;-57
2023/01/26 12:19:39;;;;;;;74.75;17.15;;;6.00;91.00;;;;;;5094298;28;20016;-58
2023/01/26 12:22:13;;;;;;;82.68;17.33;;;6.00;91.10;;;;;;5087302;28;20028;-58
2023/01/26 12:24:57;;;;;;;85.68;17.80;;;6.00;91.00;;;;;;5077028;28;20027;-58
2023/01/26 12:27:32;;;;;;;106.05;19.15;;;6.00;91.00;;;;;;5087631;28;20056;-58
2023/01/26 12:30:16;;;;;;;;;;;6.00;91.00;;;;;;5101886;28;20410;-58
2023/01/26 12:32:42;;;;;;;90.30;19.58;;;6.00;90.90;;;;;;5078667;28;19934;-58
2023/01/26 12:35:10;;;;;;;92.35;18.80;;;6.00;90.90;;;;;;5096145;28;20025;-57
2023/01/26 12:37:50;;;;;;;78.13;16.60;;;6.00;90.90;;;;;;5075504;28;20048;-58
2023/01/26 12:40:21;;;;;;;77.18;18.42;;;6.00;90.90;;;;;;5070851;28;20184;-58
2023/01/26 12:42:48;;;;;;;76.43;18.80;;;6.00;90.90;;;;;;5097122;28;20040;-58
2023/01/26 12:45:17;;;;;;;70.38;16.88;;;6.00;90.90;;;;;;5085914;28;20035;-58
2023/01/26 12:47:54;;;;;;;77.80;17.40;;;6.00;90.80;;;;;;5103480;28;20036;-58
2023/01/26 12:50:41;;;;;;;66.10;16.85;;;6.00;90.80;;;;;;5102580;28;20040;-58
2023/01/26 12:53:30;;;;;;;74.68;17.92;;;6.00;90.70;;;;;;5096991;28;20465;-58
2023/01/26 12:56:28;;;;;;;70.22;16.35;;;5.90;90.60;;;;;;5068429;28;20496;-58
2023/01/26 12:58:54;;;;;;;52.30;14.93;;;5.90;90.70;;;;;;5100118;28;20061;-58
2023/01/26 13:01:20;;;;;;;49.50;14.32;;;6.00;90.70;;;;;;5097975;28;20111;-57
2023/01/26 13:04:02;;;;;;;56.42;15.75;;;5.90;90.60;;;;;;5086515;28;20059;-58
2023/01/26 13:06:28;;;;;;;74.55;16.45;;;5.90;90.60;;;;;;5092109;28;20040;-57
2023/01/26 13:08:56;;;;;;;69.47;16.08;;;6.00;90.60;;;;;;5084047;28;20051;-58
2023/01/26 13:11:42;;;;;;;77.15;16.10;;;6.00;90.70;;;;;;5090885;28;20056;-58
2023/01/26 13:14:33;;;;;;;78.30;16.35;;;5.90;90.60;;;;;;5080745;28;20088;-58
2023/01/26 13:17:14;;;;;;;79.00;16.90;;;5.90;90.70;;;;;;5095223;28;20024;-58
2023/01/26 13:19:43;;;;;;;64.20;14.70;;;6.00;90.70;;;;;;5093723;28;20046;-58
2023/01/26 13:22:17;;;;;;;95.90;17.58;;;6.00;90.60;;;;;;5095241;28;20024;-58
2023/01/26 13:25:07;;;;;;;75.13;15.20;;;6.00;90.60;;;;;;5095512;28;20481;-58
2023/01/26 13:27:38;;;;;;;74.57;16.45;;;6.00;90.60;;;;;;5071557;28;20312;-58
2023/01/26 13:30:28;;;;;;;74.38;17.02;;;5.90;90.60;;;;;;5100779;28;20039;-57
2023/01/26 13:33:12;;;;;;;81.78;17.77;;;6.00;90.60;;;;;;5096043;28;20477;-58